createdAt,value
2019-01-16T00:02:11.117Z,6.40
2019-01-16T00:04:53.717Z,6.40
2019-01-16T00:07:40.346Z,6.40
2019-01-16T00:10:17.499Z,6.50
2019-01-16T00:13:03.811Z,6.50
2019-01-16T00:15:52.058Z,6.60
2019-01-16T00:18:37.776Z,6.50
2019-01-16T00:21:26.181Z,6.60
2019-01-16T00:24:17.254Z,6.60
2019-01-16T00:27:05.594Z,6.60
2019-01-16T00:29:53.937Z,6.60
2019-01-16T00:32:42.180Z,6.60
2019-01-16T00:35:39.300Z,6.70
2019-01-16T00:38:22.551Z,6.60
2019-01-16T00:41:11.831Z,6.60
2019-01-16T00:43:58.905Z,6.60
2019-01-16T00:46:53.250Z,6.60
2019-01-16T00:49:40.246Z,6.60
2019-01-16T00:52:27.366Z,6.60
2019-01-16T00:55:25.957Z,6.50
2019-01-16T00:58:32.395Z,6.50
2019-01-16T01:01:20.875Z,6.50
2019-01-16T01:04:13.460Z,6.50
2019-01-16T01:06:59.757Z,6.50
2019-01-16T01:09:46.648Z,6.60
2019-01-16T01:12:27.141Z,6.60
2019-01-16T01:15:30.649Z,6.60
2019-01-16T01:18:17.641Z,6.60
2019-01-16T01:21:14.727Z,6.70
2019-01-16T01:24:06.869Z,6.70
2019-01-16T01:27:00.304Z,6.60
2019-01-16T01:29:54.704Z,6.70
2019-01-16T01:32:41.768Z,6.60
2019-01-16T01:35:38.983Z,6.70
2019-01-16T01:38:27.620Z,6.70
2019-01-16T01:41:15.896Z,6.70
2019-01-16T01:43:59.984Z,6.70
2019-01-16T01:46:39.606Z,6.80
2019-01-16T01:49:25.211Z,6.80
2019-01-16T01:52:05.079Z,6.90
2019-01-16T01:54:43.997Z,6.90
2019-01-16T01:57:27.695Z,7.00
2019-01-16T02:00:14.909Z,7.00
2019-01-16T02:03:03.183Z,7.10
2019-01-16T02:05:51.728Z,7.10
2019-01-16T02:08:43.101Z,7.10
2019-01-16T02:11:30.222Z,7.10
2019-01-16T02:14:31.510Z,7.20
2019-01-16T02:17:18.673Z,7.30
2019-01-16T02:20:15.675Z,7.30
2019-01-16T02:22:58.154Z,7.40
2019-01-16T02:25:58.567Z,7.40
2019-01-16T02:28:53.020Z,7.40
2019-01-16T02:31:32.970Z,7.40
2019-01-16T02:34:19.940Z,7.50
2019-01-16T02:37:06.895Z,7.50
2019-01-16T02:39:58.506Z,7.50
2019-01-16T02:42:56.097Z,7.50
2019-01-16T02:45:43.086Z,7.50
2019-01-16T02:48:30.202Z,7.50
2019-01-16T02:51:18.413Z,7.60
2019-01-16T02:54:05.085Z,7.60
2019-01-16T02:56:56.398Z,7.60
2019-01-16T02:59:59.557Z,7.60
2019-01-16T03:02:46.327Z,7.60
2019-01-16T03:05:33.195Z,7.60
2019-01-16T03:08:17.228Z,7.60
2019-01-16T03:11:03.852Z,7.70
2019-01-16T03:13:54.944Z,7.60
2019-01-16T03:16:31.593Z,7.60
2019-01-16T03:19:19.830Z,7.60
2019-01-16T03:22:08.142Z,7.60
2019-01-16T03:24:54.838Z,7.60
2019-01-16T03:27:55.112Z,7.60
2019-01-16T03:30:42.262Z,7.60
2019-01-16T03:33:29.184Z,7.60
2019-01-16T03:36:23.878Z,7.60
2019-01-16T03:39:10.838Z,7.50
2019-01-16T03:42:01.886Z,7.50
2019-01-16T03:44:50.248Z,7.40
2019-01-16T03:47:44.283Z,7.40
2019-01-16T03:50:44.666Z,7.40
2019-01-16T03:53:24.875Z,7.40
2019-01-16T03:56:04.539Z,7.30
2019-01-16T03:58:47.476Z,7.40
2019-01-16T04:01:47.814Z,7.40
2019-01-16T04:04:29.525Z,7.40
2019-01-16T04:07:15.105Z,7.40
2019-01-16T04:09:54.858Z,7.40
2019-01-16T04:12:58.294Z,7.40
2019-01-16T04:15:55.676Z,7.30
2019-01-16T04:18:42.352Z,7.40
2019-01-16T04:21:27.062Z,7.40
2019-01-16T04:24:30.736Z,7.40
2019-01-16T04:27:18.746Z,7.50
2019-01-16T04:30:11.260Z,7.50
2019-01-16T04:33:00.935Z,7.50
2019-01-16T04:35:47.880Z,7.50
2019-01-16T04:38:27.497Z,7.50
2019-01-16T04:41:14.476Z,7.50
2019-01-16T04:43:52.983Z,7.50
2019-01-16T04:46:47.159Z,7.60
2019-01-16T04:49:42.096Z,7.60
2019-01-16T04:52:33.172Z,7.60
2019-01-16T04:55:11.815Z,7.60
2019-01-16T04:58:06.906Z,7.50
2019-01-16T05:00:46.358Z,7.50
2019-01-16T05:03:52.590Z,7.60
2019-01-16T05:06:40.913Z,7.60
2019-01-16T05:09:34.450Z,7.60
2019-01-16T05:12:32.340Z,7.60
2019-01-16T05:15:31.932Z,7.60
2019-01-16T05:18:29.356Z,7.70
2019-01-16T05:21:32.572Z,7.70
2019-01-16T05:24:21.052Z,7.60
2019-01-16T05:27:12.683Z,7.60
2019-01-16T05:30:06.803Z,7.60
2019-01-16T05:32:46.072Z,7.60
2019-01-16T05:35:26.143Z,7.60
2019-01-16T05:38:30.208Z,7.70
2019-01-16T05:41:30.640Z,7.70
2019-01-16T05:44:17.398Z,7.70
2019-01-16T05:47:01.710Z,7.70
2019-01-16T05:49:53.186Z,7.70
2019-01-16T05:52:35.014Z,7.70
2019-01-16T05:55:33.511Z,7.80
2019-01-16T05:58:16.489Z,7.80
2019-01-16T06:01:16.717Z,7.80
2019-01-16T06:04:09.448Z,7.80
2019-01-16T06:07:06.956Z,7.80
2019-01-16T06:09:53.718Z,7.80
2019-01-16T06:12:45.228Z,7.80
2019-01-16T06:15:45.657Z,7.80
2019-01-16T06:18:26.897Z,7.80
2019-01-16T06:21:13.734Z,7.80
2019-01-16T06:24:20.194Z,7.90
2019-01-16T06:27:12.545Z,7.90
2019-01-16T06:30:03.584Z,7.90
2019-01-16T06:32:50.280Z,7.90
2019-01-16T06:35:36.958Z,7.80
2019-01-16T06:38:25.803Z,7.80
2019-01-16T06:41:29.328Z,7.80
2019-01-16T06:44:23.508Z,7.80
2019-01-16T06:47:01.916Z,7.80
2019-01-16T06:49:50.914Z,7.80
2019-01-16T06:52:37.670Z,7.80
2019-01-16T06:55:28.938Z,7.80
2019-01-16T06:58:16.178Z,7.80
2019-01-16T07:01:04.559Z,7.80
2019-01-16T07:03:51.289Z,7.90
2019-01-16T07:06:35.386Z,7.90
2019-01-16T07:09:29.494Z,7.90
2019-01-16T07:12:13.997Z,7.90
2019-01-16T07:14:59.822Z,8.00
2019-01-16T07:17:46.501Z,7.90
2019-01-16T07:20:32.150Z,7.90
2019-01-16T07:23:23.389Z,8.00
2019-01-16T07:26:23.658Z,7.90
2019-01-16T07:29:22.122Z,7.90
2019-01-16T07:32:17.385Z,8.00
2019-01-16T07:35:05.722Z,8.00
2019-01-16T07:37:50.772Z,8.00
2019-01-16T07:40:51.014Z,8.00
2019-01-16T07:43:45.382Z,8.10
2019-01-16T07:46:36.373Z,8.10
2019-01-16T07:49:23.157Z,8.10
2019-01-16T07:52:11.472Z,8.10
2019-01-16T07:55:08.645Z,8.10
2019-01-16T07:57:55.655Z,8.10
2019-01-16T08:00:46.903Z,8.10
2019-01-16T08:03:50.405Z,8.10
2019-01-16T08:06:37.033Z,8.10
2019-01-16T08:09:27.970Z,8.10
2019-01-16T08:12:23.121Z,8.20
2019-01-16T08:15:09.935Z,8.20
2019-01-16T08:17:55.121Z,8.20
2019-01-16T08:20:49.781Z,8.20
2019-01-16T08:23:36.563Z,8.20
2019-01-16T08:26:37.099Z,8.30
2019-01-16T08:29:30.293Z,8.30
2019-01-16T08:32:36.532Z,8.30
2019-01-16T08:35:43.601Z,8.30
2019-01-16T08:38:34.840Z,8.30
2019-01-16T08:41:23.410Z,8.40
2019-01-16T08:44:20.606Z,8.50
2019-01-16T08:47:27.183Z,8.50
2019-01-16T08:50:21.605Z,8.50
2019-01-16T08:53:25.019Z,8.60
2019-01-16T08:56:10.833Z,8.70
2019-01-16T08:58:58.692Z,8.60
2019-01-16T09:01:47.776Z,8.70
2019-01-16T09:04:47.926Z,8.80
2019-01-16T09:07:29.982Z,8.80
2019-01-16T09:10:27.102Z,8.90
2019-01-16T09:13:21.432Z,8.90
2019-01-16T09:16:13.341Z,8.90
2019-01-16T09:19:25.538Z,8.90
2019-01-16T09:22:12.630Z,8.90
2019-01-16T09:24:59.435Z,8.90
2019-01-16T09:27:47.891Z,8.90
2019-01-16T09:30:31.038Z,8.90
2019-01-16T09:33:22.285Z,8.90
2019-01-16T09:35:58.961Z,8.90
2019-01-16T09:38:45.945Z,8.90
2019-01-16T09:41:33.115Z,8.90
2019-01-16T09:44:30.149Z,8.90
2019-01-16T09:47:17.093Z,8.90
2019-01-16T09:50:05.403Z,8.90
2019-01-16T09:52:52.249Z,8.90
2019-01-16T09:55:40.267Z,9.00
2019-01-16T09:58:28.877Z,9.00
2019-01-16T10:01:26.269Z,9.00
2019-01-16T10:04:13.143Z,9.00
2019-01-16T10:06:55.711Z,9.10
2019-01-16T10:09:41.998Z,9.10
2019-01-16T10:12:21.291Z,9.10
2019-01-16T10:15:08.137Z,9.20
2019-01-16T10:17:59.563Z,9.20
2019-01-16T10:20:55.765Z,9.30
2019-01-16T10:23:42.420Z,9.40
2019-01-16T10:26:20.472Z,9.50
2019-01-16T10:29:11.877Z,9.50
2019-01-16T10:32:00.169Z,9.60
2019-01-16T10:35:00.745Z,9.60
2019-01-16T10:37:48.545Z,9.60
2019-01-16T10:40:36.895Z,9.60
2019-01-16T10:43:12.078Z,9.60
2019-01-16T10:46:00.398Z,9.60
2019-01-16T10:48:51.745Z,9.70
2019-01-16T10:51:40.081Z,9.70
2019-01-16T10:54:28.095Z,9.80
2019-01-16T10:57:15.221Z,9.80
2019-01-16T10:59:54.113Z,9.80
2019-01-16T11:02:48.539Z,9.80
2019-01-16T11:05:36.869Z,9.90
2019-01-16T11:08:31.113Z,9.90
2019-01-16T11:11:16.661Z,9.90
2019-01-16T11:14:19.841Z,10.00
2019-01-16T11:17:08.217Z,10.00
2019-01-16T11:19:52.537Z,10.00
2019-01-16T11:22:40.834Z,10.00
2019-01-16T11:25:44.337Z,9.90
2019-01-16T11:28:31.387Z,10.00
2019-01-16T11:31:21.833Z,10.00
2019-01-16T11:34:10.237Z,10.00
2019-01-16T11:37:16.654Z,10.10
2019-01-16T11:40:04.872Z,10.00
2019-01-16T11:42:48.907Z,10.00
2019-01-16T11:45:40.237Z,10.00
2019-01-16T11:48:28.129Z,10.00
2019-01-16T11:51:07.471Z,10.00
2019-01-16T11:53:54.395Z,9.90
2019-01-16T11:56:42.712Z,9.90
2019-01-16T11:59:21.521Z,9.80
2019-01-16T12:02:13.366Z,9.80
2019-01-16T12:05:14.698Z,9.80
2019-01-16T12:08:01.437Z,9.70
2019-01-16T12:10:54.992Z,9.70
2019-01-16T12:13:55.175Z,9.70
2019-01-16T12:16:46.308Z,9.70
2019-01-16T12:19:34.695Z,9.80
2019-01-16T12:22:32.393Z,9.80
2019-01-16T12:25:18.535Z,9.80
2019-01-16T12:28:21.989Z,9.90
2019-01-16T12:31:15.989Z,9.90
2019-01-16T12:34:02.130Z,9.80
2019-01-16T12:36:53.547Z,9.80
2019-01-16T12:39:50.637Z,9.70
2019-01-16T12:42:45.754Z,9.60
2019-01-16T12:45:39.639Z,9.60
2019-01-16T12:48:38.703Z,9.50
2019-01-16T12:51:17.840Z,9.50
2019-01-16T12:54:02.001Z,9.50
2019-01-16T12:56:48.961Z,9.50
2019-01-16T12:59:45.710Z,9.60
2019-01-16T13:02:40.249Z,9.60
2019-01-16T13:05:43.991Z,9.60
2019-01-16T13:08:32.018Z,9.60
2019-01-16T13:11:16.717Z,9.60
2019-01-16T13:14:13.567Z,9.70
2019-01-16T13:17:00.489Z,9.70
2019-01-16T13:19:41.577Z,9.70
2019-01-16T13:22:29.553Z,9.70
2019-01-16T13:25:16.435Z,9.70
2019-01-16T13:28:19.750Z,9.60
2019-01-16T13:31:13.973Z,9.50
2019-01-16T13:34:05.442Z,9.50
2019-01-16T13:36:52.877Z,9.50
2019-01-16T13:39:41.556Z,9.40
2019-01-16T13:42:28.158Z,9.40
2019-01-16T13:45:15.667Z,9.40
2019-01-16T13:47:57.090Z,9.40
2019-01-16T13:50:44.244Z,9.40
2019-01-16T13:53:44.223Z,9.40
2019-01-16T13:56:36.252Z,9.40
2019-01-16T13:59:42.892Z,9.40
2019-01-16T14:02:28.239Z,9.40
2019-01-16T14:05:26.744Z,9.40
2019-01-16T14:08:24.677Z,9.50
2019-01-16T14:11:14.321Z,9.50
2019-01-16T14:14:06.783Z,9.50
2019-01-16T14:17:03.234Z,9.60
2019-01-16T14:19:59.344Z,9.50
2019-01-16T14:22:47.811Z,9.60
2019-01-16T14:25:51.797Z,9.50
2019-01-16T14:29:25.071Z,9.40
2019-01-16T14:32:16.676Z,9.40
2019-01-16T14:35:13.570Z,9.40
2019-01-16T14:38:05.050Z,9.30
2019-01-16T14:41:05.406Z,9.30
2019-01-16T14:44:02.348Z,9.30
2019-01-16T14:46:50.795Z,9.30
2019-01-16T14:49:35.783Z,9.20
2019-01-16T14:52:24.758Z,9.20
2019-01-16T14:55:19.876Z,9.20
2019-01-16T14:58:19.394Z,9.20
2019-01-16T15:01:11.052Z,9.20
2019-01-16T15:03:56.685Z,9.10
2019-01-16T15:06:45.170Z,9.10
2019-01-16T15:09:45.862Z,9.00
2019-01-16T15:12:43.454Z,8.90
2019-01-16T15:15:38.863Z,8.90
2019-01-16T15:18:22.458Z,8.80
2019-01-16T15:21:10.958Z,8.80
2019-01-16T15:24:00.367Z,8.70
2019-01-16T15:26:48.594Z,8.60
2019-01-16T15:29:42.698Z,8.60
2019-01-16T15:32:31.044Z,8.60
2019-01-16T15:35:31.668Z,8.60
2019-01-16T15:38:12.784Z,8.60
2019-01-16T15:41:04.229Z,8.50
2019-01-16T15:43:56.652Z,8.40
2019-01-16T15:46:50.010Z,8.40
2019-01-16T15:49:36.920Z,8.40
2019-01-16T15:52:24.202Z,8.30
2019-01-16T15:55:21.761Z,8.30
2019-01-16T15:58:13.606Z,8.20
2019-01-16T16:01:10.634Z,8.20
2019-01-16T16:03:54.748Z,8.10
2019-01-16T16:06:56.200Z,8.10
2019-01-16T16:09:56.855Z,8.10
2019-01-16T16:12:49.246Z,8.10
2019-01-16T16:15:33.164Z,8.00
2019-01-16T16:18:32.254Z,8.00
2019-01-16T16:21:19.114Z,7.90
2019-01-16T16:24:07.851Z,7.90
2019-01-16T16:27:18.498Z,7.90
2019-01-16T16:30:06.550Z,7.80
2019-01-16T16:33:00.156Z,7.80
2019-01-16T16:36:09.575Z,7.70
2019-01-16T16:39:08.367Z,7.70
2019-01-16T16:42:05.184Z,7.60
2019-01-16T16:45:04.002Z,7.60
2019-01-16T16:47:48.908Z,7.50
2019-01-16T16:50:57.454Z,7.50
2019-01-16T16:53:44.738Z,7.50
2019-01-16T16:56:32.932Z,7.40
2019-01-16T16:59:17.780Z,7.40
2019-01-16T17:02:07.401Z,7.30
2019-01-16T17:04:58.910Z,7.30
2019-01-16T17:07:56.690Z,7.30
2019-01-16T17:10:43.537Z,7.20
2019-01-16T17:13:25.036Z,7.20
2019-01-16T17:16:17.958Z,7.10
2019-01-16T17:19:08.542Z,7.10
2019-01-16T17:21:57.306Z,7.10
2019-01-16T17:24:53.551Z,7.00
2019-01-16T17:27:51.444Z,6.90
2019-01-16T17:30:39.926Z,6.90
2019-01-16T17:33:34.224Z,6.90
2019-01-16T17:36:16.268Z,6.80
2019-01-16T17:39:04.304Z,6.80
2019-01-16T17:41:40.242Z,6.80
2019-01-16T17:44:34.193Z,6.70
2019-01-16T17:47:17.478Z,6.70
2019-01-16T17:50:13.578Z,6.60
2019-01-16T17:53:00.540Z,6.60
2019-01-16T17:55:55.114Z,6.50
2019-01-16T17:58:50.452Z,6.40
2019-01-16T18:01:37.497Z,6.20
2019-01-16T18:04:24.324Z,6.10
2019-01-16T18:07:12.238Z,6.00
2019-01-16T18:10:02.686Z,5.90
2019-01-16T18:13:09.030Z,5.90
2019-01-16T18:16:09.417Z,5.80
2019-01-16T18:18:56.316Z,5.70
2019-01-16T18:21:45.456Z,5.60
2019-01-16T18:24:39.890Z,5.50
2019-01-16T18:27:29.761Z,5.40
2019-01-16T18:30:33.310Z,5.30
2019-01-16T18:33:27.290Z,5.20
2019-01-16T18:36:22.326Z,5.20
2019-01-16T18:39:12.644Z,5.10
2019-01-16T18:42:06.592Z,5.10
2019-01-16T18:45:02.706Z,5.10
2019-01-16T18:48:03.594Z,5.10
2019-01-16T18:51:01.292Z,5.20
2019-01-16T18:53:56.254Z,5.20
2019-01-16T18:56:51.114Z,5.30
2019-01-16T18:59:44.512Z,5.20
2019-01-16T19:02:33.418Z,5.30
2019-01-16T19:05:27.928Z,5.30
2019-01-16T19:08:16.811Z,5.40
2019-01-16T19:11:21.826Z,5.40
2019-01-16T19:14:17.052Z,5.40
2019-01-16T19:17:11.443Z,5.40
2019-01-16T19:19:54.388Z,5.50
2019-01-16T19:22:32.528Z,5.50
2019-01-16T19:25:28.474Z,5.50
2019-01-16T19:28:12.325Z,5.50
2019-01-16T19:30:59.786Z,5.40
2019-01-16T19:33:48.542Z,5.40
2019-01-16T19:36:42.946Z,5.40
2019-01-16T19:39:34.135Z,5.40
2019-01-16T19:42:23.968Z,5.40
2019-01-16T19:45:04.329Z,5.40
2019-01-16T19:47:52.647Z,5.30
2019-01-16T19:50:57.737Z,5.40
2019-01-16T19:53:47.611Z,5.40
2019-01-16T19:56:51.598Z,5.40
2019-01-16T19:59:39.989Z,5.40
2019-01-16T20:02:27.900Z,5.40
2019-01-16T20:05:17.766Z,5.40
2019-01-16T20:08:13.651Z,5.50
2019-01-16T20:10:58.991Z,5.50
2019-01-16T20:14:06.993Z,5.60
2019-01-16T20:17:11.059Z,5.60
2019-01-16T20:20:03.995Z,5.60
2019-01-16T20:22:53.022Z,5.70
2019-01-16T20:29:13.989Z,5.80
2019-01-16T20:32:14.414Z,5.80
2019-01-16T20:35:12.807Z,5.90
2019-01-16T20:38:06.216Z,5.90
2019-01-16T20:41:16.886Z,6.00
2019-01-16T21:22:33.069Z,5.60
2019-01-16T21:50:46.869Z,5.80
2019-01-16T22:45:40.165Z,5.40
2019-01-16T22:48:29.135Z,5.40
2019-01-16T22:51:18.177Z,5.40
2019-01-16T22:54:38.582Z,5.30
2019-01-16T22:57:53.783Z,5.40
2019-01-16T23:01:05.899Z,5.40
2019-01-16T23:03:54.023Z,5.40
2019-01-16T23:07:11.771Z,5.40
2019-01-16T23:10:05.313Z,5.40
2019-01-16T23:18:49.957Z,5.20
2019-01-16T23:26:50.079Z,5.20
2019-01-16T23:30:10.617Z,5.20
2019-01-16T23:33:22.897Z,5.10
2019-01-16T23:38:47.426Z,5.10
2019-01-16T23:41:43.052Z,5.10
2019-01-16T23:47:14.411Z,5.00
2019-01-16T23:50:07.569Z,5.00
2019-01-16T23:52:55.248Z,5.00
2019-01-16T23:55:56.175Z,4.90
2019-01-16T23:58:49.715Z,4.90
